Copthorne, United Kingdom
Current Conditions -  °F | °C
As of 8:20 AM on Friday 31 Oct 2014 (Local Time) from EGKK Reporting Station
Clear Clear  
Wind Chill: 59°   Ceiling: Unl
Heat Index: 59°   Visibility: 5mi
Dew Point: 57°   Wind: 5mph
Humidity: 94%   Direction: 180°S
Pressure: 30.06"   Gusts: NA
Location:  51.14°N, 0.12°W
Report Text: EGKK 310820Z 18004KT 140V220 8000 NSC 15/14 Q1018
Loading
Personal Weather Stations






























Interactive Weather Map
Tropical Storm Tracking
New forecast layout! Learn more

10-Day Weather Forecast

Advertisements
Track Severe Weather on mobile